sensor_id;sensor_type;location;lat;lon;timestamp;P1;durP1;ratioP1;P2;durP2;ratioP2
5587;SDS011;2816;49.778;9.986;2023-07-31T00:02:21;4.83;;;1.80;;
5587;SDS011;2816;49.778;9.986;2023-07-31T00:04:48;8.63;;;1.90;;
5587;SDS011;2816;49.778;9.986;2023-07-31T00:07:15;8.63;;;2.30;;
5587;SDS011;2816;49.778;9.986;2023-07-31T00:09:41;10.43;;;2.83;;
5587;SDS011;2816;49.778;9.986;2023-07-31T00:12:09;3.80;;;1.70;;
5587;SDS011;2816;49.778;9.986;2023-07-31T00:14:35;2.73;;;1.50;;
5587;SDS011;2816;49.778;9.986;2023-07-31T00:17:03;5.30;;;1.77;;
5587;SDS011;2816;49.778;9.986;2023-07-31T00:19:31;4.13;;;1.70;;
5587;SDS011;2816;49.778;9.986;2023-07-31T00:21:58;4.83;;;1.57;;
5587;SDS011;2816;49.778;9.986;2023-07-31T00:24:25;5.07;;;1.80;;
5587;SDS011;2816;49.778;9.986;2023-07-31T00:26:52;3.13;;;1.70;;
5587;SDS011;2816;49.778;9.986;2023-07-31T00:29:19;3.17;;;1.73;;
5587;SDS011;2816;49.778;9.986;2023-07-31T00:31:46;3.17;;;2.07;;
5587;SDS011;2816;49.778;9.986;2023-07-31T00:34:13;5.70;;;2.13;;
5587;SDS011;2816;49.778;9.986;2023-07-31T00:36:41;3.70;;;1.80;;
5587;SDS011;2816;49.778;9.986;2023-07-31T00:39:08;7.13;;;1.80;;
5587;SDS011;2816;49.778;9.986;2023-07-31T00:41:35;7.57;;;1.67;;
5587;SDS011;2816;49.778;9.986;2023-07-31T00:44:02;3.17;;;2.10;;
5587;SDS011;2816;49.778;9.986;2023-07-31T00:46:29;2.47;;;1.57;;
5587;SDS011;2816;49.778;9.986;2023-07-31T00:48:56;4.43;;;2.10;;
5587;SDS011;2816;49.778;9.986;2023-07-31T00:51:24;3.43;;;1.80;;
5587;SDS011;2816;49.778;9.986;2023-07-31T00:53:52;6.03;;;2.07;;
5587;SDS011;2816;49.778;9.986;2023-07-31T00:56:20;2.60;;;1.97;;
5587;SDS011;2816;49.778;9.986;2023-07-31T00:58:48;2.77;;;1.83;;
5587;SDS011;2816;49.778;9.986;2023-07-31T01:01:15;5.27;;;1.93;;
5587;SDS011;2816;49.778;9.986;2023-07-31T01:03:42;2.37;;;1.60;;
5587;SDS011;2816;49.778;9.986;2023-07-31T01:06:13;2.50;;;1.40;;
5587;SDS011;2816;49.778;9.986;2023-07-31T01:08:50;3.73;;;1.70;;
5587;SDS011;2816;49.778;9.986;2023-07-31T01:11:26;5.97;;;2.20;;
5587;SDS011;2816;49.778;9.986;2023-07-31T01:13:54;4.27;;;2.07;;
5587;SDS011;2816;49.778;9.986;2023-07-31T01:16:21;7.70;;;1.60;;
5587;SDS011;2816;49.778;9.986;2023-07-31T01:18:48;5.20;;;1.90;;
5587;SDS011;2816;49.778;9.986;2023-07-31T01:21:19;5.83;;;1.67;;
5587;SDS011;2816;49.778;9.986;2023-07-31T01:26:51;1.87;;;1.40;;
5587;SDS011;2816;49.778;9.986;2023-07-31T01:29:24;4.07;;;1.90;;
5587;SDS011;2816;49.778;9.986;2023-07-31T01:31:59;4.43;;;1.77;;
5587;SDS011;2816;49.778;9.986;2023-07-31T01:34:28;9.40;;;1.87;;
5587;SDS011;2816;49.778;9.986;2023-07-31T01:36:55;4.00;;;1.70;;
5587;SDS011;2816;49.778;9.986;2023-07-31T01:39:23;3.57;;;1.83;;
5587;SDS011;2816;49.778;9.986;2023-07-31T01:41:51;2.20;;;1.63;;
5587;SDS011;2816;49.778;9.986;2023-07-31T01:44:18;4.43;;;1.70;;
5587;SDS011;2816;49.778;9.986;2023-07-31T01:46:45;4.03;;;1.73;;
5587;SDS011;2816;49.778;9.986;2023-07-31T01:49:12;2.80;;;1.70;;
5587;SDS011;2816;49.778;9.986;2023-07-31T01:51:39;5.50;;;2.20;;
5587;SDS011;2816;49.778;9.986;2023-07-31T01:54:06;4.27;;;1.93;;
5587;SDS011;2816;49.778;9.986;2023-07-31T01:56:33;2.30;;;1.60;;
5587;SDS011;2816;49.778;9.986;2023-07-31T01:59:01;4.33;;;1.97;;
5587;SDS011;2816;49.778;9.986;2023-07-31T02:01:28;3.70;;;1.60;;
5587;SDS011;2816;49.778;9.986;2023-07-31T02:03:55;5.10;;;1.97;;
5587;SDS011;2816;49.778;9.986;2023-07-31T02:06:22;4.53;;;1.57;;
5587;SDS011;2816;49.778;9.986;2023-07-31T02:08:49;7.23;;;2.10;;
5587;SDS011;2816;49.778;9.986;2023-07-31T02:11:16;7.73;;;1.67;;
5587;SDS011;2816;49.778;9.986;2023-07-31T02:13:44;2.57;;;1.73;;
5587;SDS011;2816;49.778;9.986;2023-07-31T02:16:12;3.50;;;1.77;;
5587;SDS011;2816;49.778;9.986;2023-07-31T02:18:39;6.33;;;1.90;;
5587;SDS011;2816;49.778;9.986;2023-07-31T02:21:06;5.40;;;2.30;;
5587;SDS011;2816;49.778;9.986;2023-07-31T02:23:33;4.70;;;1.90;;
5587;SDS011;2816;49.778;9.986;2023-07-31T02:26:00;2.27;;;2.00;;
5587;SDS011;2816;49.778;9.986;2023-07-31T02:28:27;7.90;;;2.00;;
5587;SDS011;2816;49.778;9.986;2023-07-31T02:30:54;3.03;;;1.50;;
5587;SDS011;2816;49.778;9.986;2023-07-31T02:33:22;4.57;;;1.90;;
5587;SDS011;2816;49.778;9.986;2023-07-31T02:35:49;2.83;;;2.00;;
5587;SDS011;2816;49.778;9.986;2023-07-31T02:38:16;5.53;;;2.03;;
5587;SDS011;2816;49.778;9.986;2023-07-31T02:40:43;5.33;;;1.70;;
5587;SDS011;2816;49.778;9.986;2023-07-31T02:43:11;6.33;;;1.70;;
5587;SDS011;2816;49.778;9.986;2023-07-31T02:45:37;2.50;;;2.00;;
5587;SDS011;2816;49.778;9.986;2023-07-31T02:48:04;4.63;;;2.27;;
5587;SDS011;2816;49.778;9.986;2023-07-31T02:50:33;3.63;;;2.20;;
5587;SDS011;2816;49.778;9.986;2023-07-31T02:53:00;5.23;;;1.90;;
5587;SDS011;2816;49.778;9.986;2023-07-31T02:55:27;12.87;;;2.17;;
5587;SDS011;2816;49.778;9.986;2023-07-31T02:57:54;6.93;;;2.00;;
5587;SDS011;2816;49.778;9.986;2023-07-31T03:00:21;7.30;;;2.27;;
5587;SDS011;2816;49.778;9.986;2023-07-31T03:02:47;3.30;;;1.60;;
5587;SDS011;2816;49.778;9.986;2023-07-31T03:05:15;3.40;;;1.90;;
5587;SDS011;2816;49.778;9.986;2023-07-31T03:07:43;10.50;;;2.10;;
5587;SDS011;2816;49.778;9.986;2023-07-31T03:10:10;3.17;;;1.83;;
5587;SDS011;2816;49.778;9.986;2023-07-31T03:12:37;4.40;;;1.97;;
5587;SDS011;2816;49.778;9.986;2023-07-31T03:15:04;4.07;;;1.90;;
5587;SDS011;2816;49.778;9.986;2023-07-31T03:17:32;6.10;;;2.27;;
5587;SDS011;2816;49.778;9.986;2023-07-31T03:19:58;5.73;;;2.10;;
5587;SDS011;2816;49.778;9.986;2023-07-31T03:22:25;4.80;;;1.90;;
5587;SDS011;2816;49.778;9.986;2023-07-31T03:24:54;3.87;;;1.70;;
5587;SDS011;2816;49.778;9.986;2023-07-31T03:27:21;3.57;;;2.17;;
5587;SDS011;2816;49.778;9.986;2023-07-31T03:29:48;3.50;;;1.77;;
5587;SDS011;2816;49.778;9.986;2023-07-31T03:32:16;3.53;;;1.70;;
5587;SDS011;2816;49.778;9.986;2023-07-31T03:34:43;2.87;;;1.80;;
5587;SDS011;2816;49.778;9.986;2023-07-31T03:37:10;3.50;;;1.90;;
5587;SDS011;2816;49.778;9.986;2023-07-31T03:39:37;4.83;;;2.03;;
5587;SDS011;2816;49.778;9.986;2023-07-31T03:42:06;5.20;;;2.13;;
5587;SDS011;2816;49.778;9.986;2023-07-31T03:44:32;4.20;;;2.00;;
5587;SDS011;2816;49.778;9.986;2023-07-31T03:46:59;3.50;;;1.80;;
5587;SDS011;2816;49.778;9.986;2023-07-31T03:49:26;5.80;;;1.63;;
5587;SDS011;2816;49.778;9.986;2023-07-31T03:51:53;3.90;;;1.90;;
5587;SDS011;2816;49.778;9.986;2023-07-31T03:54:20;7.40;;;2.30;;
5587;SDS011;2816;49.778;9.986;2023-07-31T03:56:47;5.07;;;2.07;;
5587;SDS011;2816;49.778;9.986;2023-07-31T03:59:16;4.40;;;2.10;;
5587;SDS011;2816;49.778;9.986;2023-07-31T04:01:42;5.90;;;1.97;;
5587;SDS011;2816;49.778;9.986;2023-07-31T04:04:09;3.10;;;2.00;;
5587;SDS011;2816;49.778;9.986;2023-07-31T04:06:36;5.53;;;2.07;;
5587;SDS011;2816;49.778;9.986;2023-07-31T04:09:03;3.73;;;1.67;;
5587;SDS011;2816;49.778;9.986;2023-07-31T04:11:31;3.37;;;2.17;;
5587;SDS011;2816;49.778;9.986;2023-07-31T04:13:58;8.07;;;2.10;;
5587;SDS011;2816;49.778;9.986;2023-07-31T04:16:27;2.80;;;1.70;;
5587;SDS011;2816;49.778;9.986;2023-07-31T04:18:53;5.57;;;2.67;;
5587;SDS011;2816;49.778;9.986;2023-07-31T04:21:20;4.17;;;2.17;;
5587;SDS011;2816;49.778;9.986;2023-07-31T04:23:47;5.80;;;1.80;;
5587;SDS011;2816;49.778;9.986;2023-07-31T04:26:14;7.10;;;2.47;;
5587;SDS011;2816;49.778;9.986;2023-07-31T04:28:41;2.93;;;1.90;;
5587;SDS011;2816;49.778;9.986;2023-07-31T04:31:08;3.63;;;2.00;;
5587;SDS011;2816;49.778;9.986;2023-07-31T04:33:36;3.67;;;2.10;;
5587;SDS011;2816;49.778;9.986;2023-07-31T04:36:03;4.60;;;1.90;;
5587;SDS011;2816;49.778;9.986;2023-07-31T04:38:31;4.77;;;2.07;;
5587;SDS011;2816;49.778;9.986;2023-07-31T04:40:57;4.37;;;1.90;;
5587;SDS011;2816;49.778;9.986;2023-07-31T04:43:24;5.40;;;2.00;;
5587;SDS011;2816;49.778;9.986;2023-07-31T04:45:51;4.93;;;2.13;;
5587;SDS011;2816;49.778;9.986;2023-07-31T04:48:19;5.80;;;2.00;;
5587;SDS011;2816;49.778;9.986;2023-07-31T04:50:47;8.00;;;2.30;;
5587;SDS011;2816;49.778;9.986;2023-07-31T04:53:14;12.73;;;2.37;;
5587;SDS011;2816;49.778;9.986;2023-07-31T04:55:41;4.67;;;2.20;;
5587;SDS011;2816;49.778;9.986;2023-07-31T04:58:08;4.10;;;2.17;;
5587;SDS011;2816;49.778;9.986;2023-07-31T05:00:34;7.10;;;2.30;;
5587;SDS011;2816;49.778;9.986;2023-07-31T05:03:00;2.30;;;2.03;;
5587;SDS011;2816;49.778;9.986;2023-07-31T05:05:27;2.90;;;2.10;;
5587;SDS011;2816;49.778;9.986;2023-07-31T05:07:56;3.33;;;2.23;;
5587;SDS011;2816;49.778;9.986;2023-07-31T05:10:23;4.90;;;1.90;;
5587;SDS011;2816;49.778;9.986;2023-07-31T05:12:50;2.30;;;1.50;;
5587;SDS011;2816;49.778;9.986;2023-07-31T05:15:16;4.40;;;2.40;;
5587;SDS011;2816;49.778;9.986;2023-07-31T05:17:43;5.10;;;2.80;;
5587;SDS011;2816;49.778;9.986;2023-07-31T05:20:10;2.93;;;2.07;;
5587;SDS011;2816;49.778;9.986;2023-07-31T05:22:38;4.10;;;2.07;;
5587;SDS011;2816;49.778;9.986;2023-07-31T05:25:06;8.13;;;2.27;;
5587;SDS011;2816;49.778;9.986;2023-07-31T05:27:34;3.00;;;2.07;;
5587;SDS011;2816;49.778;9.986;2023-07-31T05:30:01;7.47;;;3.00;;
5587;SDS011;2816;49.778;9.986;2023-07-31T05:32:28;4.97;;;2.27;;
5587;SDS011;2816;49.778;9.986;2023-07-31T05:34:55;4.87;;;2.37;;
5587;SDS011;2816;49.778;9.986;2023-07-31T05:37:22;5.40;;;2.53;;
5587;SDS011;2816;49.778;9.986;2023-07-31T05:39:49;2.33;;;2.13;;
5587;SDS011;2816;49.778;9.986;2023-07-31T05:42:18;2.30;;;1.80;;
5587;SDS011;2816;49.778;9.986;2023-07-31T05:44:45;6.60;;;2.10;;
5587;SDS011;2816;49.778;9.986;2023-07-31T05:47:12;4.33;;;2.73;;
5587;SDS011;2816;49.778;9.986;2023-07-31T05:49:39;8.00;;;2.40;;
5587;SDS011;2816;49.778;9.986;2023-07-31T05:52:06;2.73;;;1.90;;
5587;SDS011;2816;49.778;9.986;2023-07-31T05:54:33;5.40;;;2.27;;
5587;SDS011;2816;49.778;9.986;2023-07-31T05:57:00;4.03;;;2.00;;
5587;SDS011;2816;49.778;9.986;2023-07-31T05:59:28;3.33;;;1.70;;
5587;SDS011;2816;49.778;9.986;2023-07-31T06:01:58;7.13;;;2.40;;
5587;SDS011;2816;49.778;9.986;2023-07-31T06:04:25;2.77;;;1.90;;
5587;SDS011;2816;49.778;9.986;2023-07-31T06:06:51;4.00;;;2.30;;
5587;SDS011;2816;49.778;9.986;2023-07-31T06:09:18;8.30;;;2.13;;
5587;SDS011;2816;49.778;9.986;2023-07-31T06:11:46;8.00;;;2.27;;
5587;SDS011;2816;49.778;9.986;2023-07-31T06:14:13;2.23;;;2.03;;
5587;SDS011;2816;49.778;9.986;2023-07-31T06:16:41;3.47;;;1.90;;
5587;SDS011;2816;49.778;9.986;2023-07-31T06:19:09;5.10;;;2.57;;
5587;SDS011;2816;49.778;9.986;2023-07-31T06:21:36;4.00;;;1.83;;
5587;SDS011;2816;49.778;9.986;2023-07-31T06:24:03;6.53;;;2.20;;
5587;SDS011;2816;49.778;9.986;2023-07-31T06:26:30;4.80;;;2.13;;
5587;SDS011;2816;49.778;9.986;2023-07-31T06:28:57;6.47;;;2.10;;
5587;SDS011;2816;49.778;9.986;2023-07-31T06:31:24;6.60;;;2.53;;
5587;SDS011;2816;49.778;9.986;2023-07-31T06:33:52;3.50;;;1.90;;
5587;SDS011;2816;49.778;9.986;2023-07-31T06:36:20;6.20;;;2.60;;
5587;SDS011;2816;49.778;9.986;2023-07-31T06:38:47;6.83;;;3.50;;
5587;SDS011;2816;49.778;9.986;2023-07-31T06:41:14;4.77;;;2.30;;
5587;SDS011;2816;49.778;9.986;2023-07-31T06:43:41;6.50;;;2.23;;
5587;SDS011;2816;49.778;9.986;2023-07-31T06:46:08;9.33;;;3.00;;
5587;SDS011;2816;49.778;9.986;2023-07-31T06:48:36;4.63;;;2.20;;
5587;SDS011;2816;49.778;9.986;2023-07-31T06:51:04;6.13;;;2.50;;
5587;SDS011;2816;49.778;9.986;2023-07-31T06:53:31;4.00;;;2.20;;
5587;SDS011;2816;49.778;9.986;2023-07-31T06:55:58;3.63;;;2.20;;
5587;SDS011;2816;49.778;9.986;2023-07-31T06:58:25;4.73;;;2.63;;
5587;SDS011;2816;49.778;9.986;2023-07-31T07:00:52;3.90;;;2.63;;
5587;SDS011;2816;49.778;9.986;2023-07-31T07:03:19;3.43;;;2.20;;
5587;SDS011;2816;49.778;9.986;2023-07-31T07:05:46;9.07;;;2.63;;
5587;SDS011;2816;49.778;9.986;2023-07-31T07:08:17;6.93;;;2.70;;
5587;SDS011;2816;49.778;9.986;2023-07-31T07:10:44;5.03;;;2.50;;
5587;SDS011;2816;49.778;9.986;2023-07-31T07:13:11;7.57;;;2.50;;
5587;SDS011;2816;49.778;9.986;2023-07-31T07:15:38;2.20;;;1.90;;
5587;SDS011;2816;49.778;9.986;2023-07-31T07:18:05;5.10;;;2.77;;
5587;SDS011;2816;49.778;9.986;2023-07-31T07:20:32;8.27;;;2.33;;
5587;SDS011;2816;49.778;9.986;2023-07-31T07:22:59;6.43;;;2.40;;
5587;SDS011;2816;49.778;9.986;2023-07-31T07:25:28;5.90;;;2.27;;
5587;SDS011;2816;49.778;9.986;2023-07-31T07:27:54;5.10;;;2.20;;
5587;SDS011;2816;49.778;9.986;2023-07-31T07:30:21;5.40;;;2.03;;
5587;SDS011;2816;49.778;9.986;2023-07-31T07:32:50;2.53;;;2.03;;
5587;SDS011;2816;49.778;9.986;2023-07-31T07:35:17;7.60;;;2.93;;
5587;SDS011;2816;49.778;9.986;2023-07-31T07:37:44;5.33;;;2.23;;
5587;SDS011;2816;49.778;9.986;2023-07-31T07:40:11;6.23;;;2.20;;
5587;SDS011;2816;49.778;9.986;2023-07-31T07:42:39;3.43;;;2.03;;
5587;SDS011;2816;49.778;9.986;2023-07-31T07:45:06;4.53;;;2.10;;
5587;SDS011;2816;49.778;9.986;2023-07-31T07:47:34;5.37;;;2.47;;
5587;SDS011;2816;49.778;9.986;2023-07-31T07:50:00;5.53;;;2.50;;
5587;SDS011;2816;49.778;9.986;2023-07-31T07:52:27;4.93;;;2.50;;
5587;SDS011;2816;49.778;9.986;2023-07-31T07:54:55;4.33;;;2.20;;
5587;SDS011;2816;49.778;9.986;2023-07-31T07:57:22;6.83;;;2.50;;
5587;SDS011;2816;49.778;9.986;2023-07-31T07:59:50;3.77;;;2.10;;
5587;SDS011;2816;49.778;9.986;2023-07-31T08:02:17;3.33;;;1.97;;
5587;SDS011;2816;49.778;9.986;2023-07-31T08:04:44;5.53;;;2.80;;
5587;SDS011;2816;49.778;9.986;2023-07-31T08:07:11;3.17;;;2.00;;
5587;SDS011;2816;49.778;9.986;2023-07-31T08:09:38;6.63;;;2.40;;
5587;SDS011;2816;49.778;9.986;2023-07-31T08:12:06;4.87;;;2.10;;
5587;SDS011;2816;49.778;9.986;2023-07-31T08:14:33;8.13;;;2.30;;
5587;SDS011;2816;49.778;9.986;2023-07-31T08:17:02;4.73;;;2.10;;
5587;SDS011;2816;49.778;9.986;2023-07-31T08:19:29;7.23;;;2.47;;
5587;SDS011;2816;49.778;9.986;2023-07-31T08:21:56;4.63;;;2.50;;
5587;SDS011;2816;49.778;9.986;2023-07-31T08:24:23;5.43;;;2.17;;
5587;SDS011;2816;49.778;9.986;2023-07-31T08:26:50;4.00;;;2.03;;
5587;SDS011;2816;49.778;9.986;2023-07-31T08:29:17;5.97;;;2.20;;
5587;SDS011;2816;49.778;9.986;2023-07-31T08:31:44;8.13;;;2.17;;
5587;SDS011;2816;49.778;9.986;2023-07-31T08:34:12;5.17;;;2.37;;
5587;SDS011;2816;49.778;9.986;2023-07-31T08:36:39;3.87;;;2.20;;
5587;SDS011;2816;49.778;9.986;2023-07-31T08:39:06;4.57;;;2.57;;
5587;SDS011;2816;49.778;9.986;2023-07-31T08:41:37;6.93;;;2.60;;
5587;SDS011;2816;49.778;9.986;2023-07-31T08:44:04;8.33;;;2.70;;
5587;SDS011;2816;49.778;9.986;2023-07-31T08:46:31;7.93;;;2.00;;
5587;SDS011;2816;49.778;9.986;2023-07-31T08:48:59;8.53;;;2.53;;
5587;SDS011;2816;49.778;9.986;2023-07-31T08:51:27;4.17;;;2.07;;
5587;SDS011;2816;49.778;9.986;2023-07-31T08:53:55;4.67;;;2.30;;
5587;SDS011;2816;49.778;9.986;2023-07-31T08:56:23;7.90;;;2.83;;
5587;SDS011;2816;49.778;9.986;2023-07-31T08:58:51;5.50;;;2.53;;
5587;SDS011;2816;49.778;9.986;2023-07-31T09:01:20;4.87;;;2.13;;
5587;SDS011;2816;49.778;9.986;2023-07-31T09:03:48;3.67;;;2.30;;
5587;SDS011;2816;49.778;9.986;2023-07-31T09:06:17;6.03;;;2.47;;
5587;SDS011;2816;49.778;9.986;2023-07-31T09:08:49;4.70;;;2.70;;
5587;SDS011;2816;49.778;9.986;2023-07-31T09:11:17;4.20;;;2.73;;
5587;SDS011;2816;49.778;9.986;2023-07-31T09:13:44;7.30;;;2.27;;
5587;SDS011;2816;49.778;9.986;2023-07-31T09:16:12;3.43;;;2.20;;
5587;SDS011;2816;49.778;9.986;2023-07-31T09:18:52;9.87;;;2.90;;
5587;SDS011;2816;49.778;9.986;2023-07-31T09:21:20;4.87;;;2.20;;
5587;SDS011;2816;49.778;9.986;2023-07-31T09:23:49;5.53;;;2.30;;
5587;SDS011;2816;49.778;9.986;2023-07-31T09:26:31;3.80;;;2.30;;
5587;SDS011;2816;49.778;9.986;2023-07-31T09:28:59;3.77;;;1.97;;
5587;SDS011;2816;49.778;9.986;2023-07-31T09:31:33;5.33;;;2.27;;
5587;SDS011;2816;49.778;9.986;2023-07-31T09:34:05;3.87;;;2.27;;
5587;SDS011;2816;49.778;9.986;2023-07-31T09:36:32;2.00;;;1.80;;
5587;SDS011;2816;49.778;9.986;2023-07-31T09:39:07;4.13;;;2.27;;
5587;SDS011;2816;49.778;9.986;2023-07-31T09:41:36;2.90;;;2.27;;
5587;SDS011;2816;49.778;9.986;2023-07-31T09:44:05;10.40;;;2.57;;
5587;SDS011;2816;49.778;9.986;2023-07-31T09:46:32;5.17;;;2.70;;
5587;SDS011;2816;49.778;9.986;2023-07-31T09:49:05;8.73;;;2.50;;
5587;SDS011;2816;49.778;9.986;2023-07-31T09:51:34;7.40;;;2.70;;
5587;SDS011;2816;49.778;9.986;2023-07-31T09:54:04;5.73;;;2.33;;
5587;SDS011;2816;49.778;9.986;2023-07-31T09:56:38;4.57;;;2.63;;
5587;SDS011;2816;49.778;9.986;2023-07-31T09:59:10;4.30;;;2.47;;
5587;SDS011;2816;49.778;9.986;2023-07-31T10:01:39;4.90;;;2.43;;
5587;SDS011;2816;49.778;9.986;2023-07-31T10:04:07;3.80;;;2.63;;
5587;SDS011;2816;49.778;9.986;2023-07-31T10:06:35;4.80;;;2.50;;
5587;SDS011;2816;49.778;9.986;2023-07-31T10:09:05;5.70;;;2.77;;
5587;SDS011;2816;49.778;9.986;2023-07-31T10:11:37;5.17;;;2.10;;
5587;SDS011;2816;49.778;9.986;2023-07-31T10:14:09;5.10;;;2.50;;
5587;SDS011;2816;49.778;9.986;2023-07-31T10:16:37;9.40;;;2.97;;
5587;SDS011;2816;49.778;9.986;2023-07-31T10:19:05;6.87;;;2.60;;
5587;SDS011;2816;49.778;9.986;2023-07-31T10:21:34;6.63;;;2.57;;
5587;SDS011;2816;49.778;9.986;2023-07-31T10:24:03;5.17;;;2.20;;
5587;SDS011;2816;49.778;9.986;2023-07-31T10:26:31;4.53;;;2.30;;
5587;SDS011;2816;49.778;9.986;2023-07-31T10:29:00;5.80;;;2.97;;
5587;SDS011;2816;49.778;9.986;2023-07-31T10:31:27;4.33;;;2.40;;
5587;SDS011;2816;49.778;9.986;2023-07-31T10:33:55;6.80;;;2.03;;
5587;SDS011;2816;49.778;9.986;2023-07-31T10:36:23;4.63;;;2.20;;
5587;SDS011;2816;49.778;9.986;2023-07-31T10:38:50;4.67;;;2.43;;
5587;SDS011;2816;49.778;9.986;2023-07-31T10:41:17;10.37;;;2.90;;
5587;SDS011;2816;49.778;9.986;2023-07-31T10:43:45;3.73;;;2.70;;
5587;SDS011;2816;49.778;9.986;2023-07-31T10:46:14;6.03;;;2.63;;
5587;SDS011;2816;49.778;9.986;2023-07-31T10:48:41;8.10;;;3.07;;
5587;SDS011;2816;49.778;9.986;2023-07-31T10:51:08;4.77;;;2.50;;
5587;SDS011;2816;49.778;9.986;2023-07-31T10:53:37;4.60;;;1.90;;
5587;SDS011;2816;49.778;9.986;2023-07-31T10:56:05;5.57;;;2.57;;
5587;SDS011;2816;49.778;9.986;2023-07-31T10:58:33;3.97;;;2.63;;
5587;SDS011;2816;49.778;9.986;2023-07-31T11:01:00;5.17;;;2.10;;
5587;SDS011;2816;49.778;9.986;2023-07-31T11:03:41;6.70;;;2.43;;
5587;SDS011;2816;49.778;9.986;2023-07-31T11:06:09;6.43;;;2.57;;
5587;SDS011;2816;49.778;9.986;2023-07-31T11:08:40;4.07;;;2.60;;
5587;SDS011;2816;49.778;9.986;2023-07-31T11:11:09;7.03;;;2.90;;
5587;SDS011;2816;49.778;9.986;2023-07-31T11:13:40;8.17;;;2.53;;
5587;SDS011;2816;49.778;9.986;2023-07-31T11:16:08;9.13;;;2.87;;
5587;SDS011;2816;49.778;9.986;2023-07-31T11:18:37;3.43;;;2.30;;
5587;SDS011;2816;49.778;9.986;2023-07-31T11:21:06;7.27;;;2.70;;
5587;SDS011;2816;49.778;9.986;2023-07-31T11:23:33;6.13;;;2.73;;
5587;SDS011;2816;49.778;9.986;2023-07-31T11:26:00;10.40;;;2.60;;
5587;SDS011;2816;49.778;9.986;2023-07-31T11:28:30;6.50;;;2.60;;
5587;SDS011;2816;49.778;9.986;2023-07-31T11:30:59;4.37;;;2.67;;
5587;SDS011;2816;49.778;9.986;2023-07-31T11:33:26;4.20;;;2.67;;
5587;SDS011;2816;49.778;9.986;2023-07-31T11:35:53;4.20;;;2.70;;
5587;SDS011;2816;49.778;9.986;2023-07-31T11:38:25;7.07;;;2.80;;
5587;SDS011;2816;49.778;9.986;2023-07-31T11:40:53;6.20;;;3.17;;
5587;SDS011;2816;49.778;9.986;2023-07-31T11:43:22;5.43;;;2.50;;
5587;SDS011;2816;49.778;9.986;2023-07-31T11:45:50;4.60;;;2.53;;
5587;SDS011;2816;49.778;9.986;2023-07-31T11:48:18;4.73;;;2.50;;
5587;SDS011;2816;49.778;9.986;2023-07-31T11:50:47;8.50;;;2.30;;
5587;SDS011;2816;49.778;9.986;2023-07-31T11:53:16;7.00;;;2.60;;
5587;SDS011;2816;49.778;9.986;2023-07-31T11:55:48;2.90;;;2.27;;
5587;SDS011;2816;49.778;9.986;2023-07-31T11:58:16;6.80;;;2.37;;
5587;SDS011;2816;49.778;9.986;2023-07-31T12:00:44;4.30;;;2.90;;
5587;SDS011;2816;49.778;9.986;2023-07-31T12:03:11;4.40;;;2.60;;
5587;SDS011;2816;49.778;9.986;2023-07-31T12:05:38;5.70;;;2.33;;
5587;SDS011;2816;49.778;9.986;2023-07-31T12:08:08;6.83;;;2.67;;
5587;SDS011;2816;49.778;9.986;2023-07-31T12:10:36;7.20;;;2.83;;
5587;SDS011;2816;49.778;9.986;2023-07-31T12:13:07;7.17;;;2.60;;
5587;SDS011;2816;49.778;9.986;2023-07-31T12:15:38;6.87;;;2.73;;
5587;SDS011;2816;49.778;9.986;2023-07-31T12:18:07;8.33;;;3.07;;
5587;SDS011;2816;49.778;9.986;2023-07-31T12:20:35;8.07;;;3.00;;
5587;SDS011;2816;49.778;9.986;2023-07-31T12:23:06;6.70;;;2.43;;
5587;SDS011;2816;49.778;9.986;2023-07-31T12:25:33;8.60;;;3.43;;
5587;SDS011;2816;49.778;9.986;2023-07-31T12:28:04;6.00;;;3.00;;
5587;SDS011;2816;49.778;9.986;2023-07-31T12:30:36;6.13;;;2.63;;
5587;SDS011;2816;49.778;9.986;2023-07-31T12:33:04;11.40;;;3.17;;
5587;SDS011;2816;49.778;9.986;2023-07-31T12:35:36;7.10;;;3.30;;
5587;SDS011;2816;49.778;9.986;2023-07-31T12:38:04;7.83;;;3.37;;
5587;SDS011;2816;49.778;9.986;2023-07-31T12:40:30;4.73;;;2.63;;
5587;SDS011;2816;49.778;9.986;2023-07-31T12:42:58;5.37;;;2.60;;
5587;SDS011;2816;49.778;9.986;2023-07-31T12:45:28;7.90;;;2.57;;
5587;SDS011;2816;49.778;9.986;2023-07-31T12:47:55;4.67;;;2.50;;
5587;SDS011;2816;49.778;9.986;2023-07-31T12:50:22;5.97;;;3.27;;
5587;SDS011;2816;49.778;9.986;2023-07-31T12:52:50;5.17;;;2.93;;
5587;SDS011;2816;49.778;9.986;2023-07-31T12:55:17;8.10;;;2.50;;
5587;SDS011;2816;49.778;9.986;2023-07-31T12:57:44;9.90;;;2.97;;
5587;SDS011;2816;49.778;9.986;2023-07-31T13:00:12;6.50;;;2.90;;
5587;SDS011;2816;49.778;9.986;2023-07-31T13:02:41;6.23;;;2.70;;
5587;SDS011;2816;49.778;9.986;2023-07-31T13:05:08;4.03;;;2.50;;
5587;SDS011;2816;49.778;9.986;2023-07-31T13:07:35;5.47;;;2.80;;
5587;SDS011;2816;49.778;9.986;2023-07-31T13:10:02;5.83;;;3.07;;
5587;SDS011;2816;49.778;9.986;2023-07-31T13:12:29;7.53;;;3.17;;
5587;SDS011;2816;49.778;9.986;2023-07-31T13:14:56;10.47;;;2.93;;
5587;SDS011;2816;49.778;9.986;2023-07-31T13:17:23;5.80;;;2.90;;
5587;SDS011;2816;49.778;9.986;2023-07-31T13:19:51;5.50;;;2.70;;
5587;SDS011;2816;49.778;9.986;2023-07-31T13:22:18;7.63;;;2.97;;
5587;SDS011;2816;49.778;9.986;2023-07-31T13:24:45;6.33;;;2.43;;
5587;SDS011;2816;49.778;9.986;2023-07-31T13:27:12;6.23;;;3.17;;
5587;SDS011;2816;49.778;9.986;2023-07-31T13:29:41;5.30;;;2.10;;
5587;SDS011;2816;49.778;9.986;2023-07-31T13:32:08;6.33;;;2.80;;
5587;SDS011;2816;49.778;9.986;2023-07-31T13:34:35;5.50;;;2.43;;
5587;SDS011;2816;49.778;9.986;2023-07-31T13:37:04;4.77;;;2.30;;
5587;SDS011;2816;49.778;9.986;2023-07-31T13:39:32;8.40;;;2.53;;
5587;SDS011;2816;49.778;9.986;2023-07-31T13:41:59;5.37;;;3.27;;
5587;SDS011;2816;49.778;9.986;2023-07-31T13:44:26;5.37;;;2.73;;
5587;SDS011;2816;49.778;9.986;2023-07-31T13:46:53;9.93;;;3.27;;
5587;SDS011;2816;49.778;9.986;2023-07-31T13:49:20;4.80;;;2.40;;
5587;SDS011;2816;49.778;9.986;2023-07-31T13:51:47;4.70;;;2.50;;
5587;SDS011;2816;49.778;9.986;2023-07-31T13:54:15;5.23;;;2.60;;
5587;SDS011;2816;49.778;9.986;2023-07-31T13:56:42;4.77;;;2.60;;
5587;SDS011;2816;49.778;9.986;2023-07-31T13:59:09;4.53;;;2.13;;
5587;SDS011;2816;49.778;9.986;2023-07-31T14:01:36;5.93;;;2.70;;
5587;SDS011;2816;49.778;9.986;2023-07-31T14:04:03;4.10;;;2.60;;
5587;SDS011;2816;49.778;9.986;2023-07-31T14:06:30;4.40;;;2.50;;
5587;SDS011;2816;49.778;9.986;2023-07-31T14:08:57;9.07;;;2.60;;
5587;SDS011;2816;49.778;9.986;2023-07-31T14:11:25;4.50;;;2.50;;
5587;SDS011;2816;49.778;9.986;2023-07-31T14:13:52;7.47;;;2.63;;
5587;SDS011;2816;49.778;9.986;2023-07-31T14:16:19;5.80;;;3.00;;
5587;SDS011;2816;49.778;9.986;2023-07-31T14:18:47;7.20;;;3.17;;
5587;SDS011;2816;49.778;9.986;2023-07-31T14:21:14;7.37;;;2.90;;
5587;SDS011;2816;49.778;9.986;2023-07-31T14:23:41;6.07;;;2.63;;
5587;SDS011;2816;49.778;9.986;2023-07-31T14:26:08;7.43;;;3.13;;
5587;SDS011;2816;49.778;9.986;2023-07-31T14:28:36;7.70;;;3.20;;
5587;SDS011;2816;49.778;9.986;2023-07-31T14:31:03;8.20;;;2.90;;
5587;SDS011;2816;49.778;9.986;2023-07-31T14:33:30;7.07;;;3.00;;
5587;SDS011;2816;49.778;9.986;2023-07-31T14:35:57;7.33;;;3.60;;
5587;SDS011;2816;49.778;9.986;2023-07-31T14:38:24;2.50;;;2.00;;
5587;SDS011;2816;49.778;9.986;2023-07-31T14:40:51;3.93;;;2.70;;
5587;SDS011;2816;49.778;9.986;2023-07-31T14:43:18;6.67;;;2.77;;
5587;SDS011;2816;49.778;9.986;2023-07-31T14:45:46;4.77;;;2.40;;
5587;SDS011;2816;49.778;9.986;2023-07-31T14:48:14;7.77;;;3.23;;
5587;SDS011;2816;49.778;9.986;2023-07-31T14:50:41;4.97;;;2.90;;
5587;SDS011;2816;49.778;9.986;2023-07-31T14:53:08;6.47;;;2.93;;
5587;SDS011;2816;49.778;9.986;2023-07-31T14:55:35;5.60;;;2.80;;
5587;SDS011;2816;49.778;9.986;2023-07-31T14:58:02;7.43;;;2.90;;
5587;SDS011;2816;49.778;9.986;2023-07-31T15:00:29;4.37;;;2.83;;
5587;SDS011;2816;49.778;9.986;2023-07-31T15:02:57;5.13;;;2.73;;
5587;SDS011;2816;49.778;9.986;2023-07-31T15:05:24;3.47;;;2.50;;
5587;SDS011;2816;49.778;9.986;2023-07-31T15:07:51;8.33;;;3.17;;
5587;SDS011;2816;49.778;9.986;2023-07-31T15:10:17;5.30;;;3.00;;
5587;SDS011;2816;49.778;9.986;2023-07-31T15:12:44;6.23;;;2.80;;
5587;SDS011;2816;49.778;9.986;2023-07-31T15:15:11;5.70;;;2.80;;
5587;SDS011;2816;49.778;9.986;2023-07-31T15:17:38;7.63;;;2.80;;
5587;SDS011;2816;49.778;9.986;2023-07-31T15:20:07;3.00;;;2.53;;
5587;SDS011;2816;49.778;9.986;2023-07-31T15:22:36;3.73;;;2.70;;